Time,TemperatureF,DewpointF,PressureIn,WindDirection,WindDirectionDegrees,WindSpeedMPH,WindSpeedGustMPH,Humidity,HourlyPrecipIn,Conditions,Clouds,dailyrainin,SoftwareType,DateUTC
2013-05-15 00:03:00,38.0,30.0,30.03,NW,305,0.0,0.0,74,0.00,,,0.00,,2013-05-15 04:03:00,
2013-05-15 00:12:00,38.0,30.0,30.03,NW,305,0.0,0.0,74,0.00,,,0.00,,2013-05-15 04:12:00,
2013-05-15 00:24:00,37.0,30.0,30.03,NW,305,0.0,0.0,75,0.00,,,0.00,,2013-05-15 04:24:00,
2013-05-15 00:33:00,36.0,29.0,30.03,NW,305,0.0,0.0,76,0.00,,,0.00,,2013-05-15 04:33:00,
2013-05-15 00:42:00,36.0,29.0,30.03,NW,305,0.0,0.0,76,0.00,,,0.00,,2013-05-15 04:42:00,
2013-05-15 00:52:00,36.0,30.0,30.03,NW,305,0.0,0.0,78,0.00,,,0.00,,2013-05-15 04:52:00,
2013-05-15 01:02:00,36.0,30.0,30.03,NW,305,0.0,0.0,78,0.00,,,0.00,,2013-05-15 05:02:00,
2013-05-15 01:12:00,36.0,30.0,30.03,NW,305,0.0,0.0,78,0.00,,,0.00,,2013-05-15 05:12:00,
2013-05-15 01:22:00,36.0,30.0,30.03,NW,305,0.0,0.0,78,0.00,,,0.00,,2013-05-15 05:22:00,
2013-05-15 01:32:00,36.0,30.0,30.03,NW,305,0.0,0.0,78,0.00,,,0.00,,2013-05-15 05:32:00,
2013-05-15 01:42:00,36.0,30.0,30.03,NW,305,0.0,0.0,78,0.00,,,0.00,,2013-05-15 05:42:00,
2013-05-15 01:52:00,36.0,30.0,30.03,NW,305,0.0,0.0,79,0.00,,,0.00,,2013-05-15 05:52:00,
2013-05-15 02:02:00,36.0,30.0,30.03,NW,305,0.0,0.0,79,0.00,,,0.00,,2013-05-15 06:02:00,
2013-05-15 02:11:00,36.0,30.0,30.03,NW,305,0.0,0.0,79,0.00,,,0.00,,2013-05-15 06:11:00,
2013-05-15 02:21:00,35.0,29.0,30.03,NW,305,0.0,0.0,80,0.00,,,0.00,,2013-05-15 06:21:00,
2013-05-15 02:32:00,34.0,29.0,30.03,NW,305,0.0,0.0,81,0.00,,,0.00,,2013-05-15 06:32:00,
2013-05-15 02:42:00,34.0,29.0,30.03,NW,305,0.0,0.0,82,0.00,,,0.00,,2013-05-15 06:42:00,
2013-05-15 02:52:00,34.0,29.0,30.03,NW,305,0.0,0.0,82,0.00,,,0.00,,2013-05-15 06:52:00,
2013-05-15 03:01:00,33.0,28.0,30.03,WNW,300,0.0,0.0,82,0.00,,,0.00,,2013-05-15 07:01:00,
2013-05-15 03:11:00,33.0,28.0,30.03,WNW,300,0.0,0.0,82,0.00,,,0.00,,2013-05-15 07:11:00,
2013-05-15 03:22:00,33.0,28.0,30.03,NW,305,0.0,0.0,83,0.00,,,0.00,,2013-05-15 07:22:00,
2013-05-15 03:32:00,33.0,28.0,30.03,NW,305,0.0,0.0,82,0.00,,,0.00,,2013-05-15 07:32:00,
2013-05-15 03:41:00,33.0,28.0,30.03,NW,305,0.0,0.0,82,0.00,,,0.00,,2013-05-15 07:41:00,
2013-05-15 03:52:00,32.0,27.0,30.03,NW,305,0.0,0.0,83,0.00,,,0.00,,2013-05-15 07:52:00,
2013-05-15 04:02:00,32.0,27.0,30.03,NW,305,0.0,0.0,83,0.00,,,0.00,,2013-05-15 08:02:00,
2013-05-15 04:12:00,32.0,27.0,30.03,NW,305,0.0,0.0,83,0.00,,,0.00,,2013-05-15 08:12:00,
2013-05-15 04:21:00,32.0,28.0,30.03,NW,305,0.0,0.0,84,0.00,,,0.00,,2013-05-15 08:21:00,
2013-05-15 04:32:00,32.0,28.0,30.03,NW,305,0.0,0.0,84,0.00,,,0.00,,2013-05-15 08:32:00,
2013-05-15 04:42:00,31.0,27.0,30.03,NW,305,0.0,0.0,85,0.00,,,0.00,,2013-05-15 08:42:00,
2013-05-15 04:53:00,31.0,27.0,30.03,NW,305,0.0,0.0,85,0.00,,,0.00,,2013-05-15 08:53:00,
2013-05-15 05:01:00,31.0,27.0,30.03,NW,305,0.0,0.0,85,0.00,,,0.00,,2013-05-15 09:01:00,
2013-05-15 05:11:00,31.0,27.0,30.03,NW,305,0.0,0.0,85,0.00,,,0.00,,2013-05-15 09:11:00,
2013-05-15 05:21:00,30.0,26.0,30.03,NW,305,0.0,0.0,85,0.00,,,0.00,,2013-05-15 09:21:00,
2013-05-15 05:33:00,30.0,26.0,30.03,NW,305,0.0,0.0,86,0.00,,,0.00,,2013-05-15 09:33:00,
2013-05-15 05:42:00,30.0,26.0,30.03,NW,305,0.0,0.0,86,0.00,,,0.00,,2013-05-15 09:42:00,
2013-05-15 05:53:00,30.0,27.0,30.03,NW,305,0.0,0.0,87,0.00,,,0.00,,2013-05-15 09:53:00,
2013-05-15 06:02:00,30.0,27.0,30.03,NW,305,0.0,0.0,87,0.00,,,0.00,,2013-05-15 10:02:00,
2013-05-15 06:13:00,30.0,27.0,30.03,NW,305,0.0,0.0,87,0.00,,,0.00,,2013-05-15 10:13:00,
2013-05-15 06:22:00,30.0,27.0,30.03,NW,305,0.0,0.0,87,0.00,,,0.00,,2013-05-15 10:22:00,
2013-05-15 06:32:00,31.0,28.0,30.03,NW,305,0.0,0.0,88,0.00,,,0.00,,2013-05-15 10:32:00,
2013-05-15 06:42:00,31.0,28.0,30.03,NW,305,0.0,0.0,88,0.00,,,0.00,,2013-05-15 10:42:00,
2013-05-15 06:52:00,31.0,28.0,30.03,NW,305,0.0,0.0,88,0.00,,,0.00,,2013-05-15 10:52:00,
2013-05-15 07:11:00,32.0,29.0,30.00,NW,305,0.0,0.0,88,0.00,,,0.00,,2013-05-15 11:11:00,
2013-05-15 07:18:00,33.0,30.0,30.03,NW,305,0.0,0.0,88,0.00,,,0.00,,2013-05-15 11:18:00,
2013-05-15 07:27:00,33.0,30.0,30.03,NW,305,0.0,0.0,88,0.00,,,0.00,,2013-05-15 11:27:00,
2013-05-15 07:37:00,34.0,31.0,30.00,NW,305,0.0,0.0,88,0.00,,,0.00,,2013-05-15 11:37:00,
2013-05-15 07:47:00,36.0,33.0,30.03,NW,305,0.0,0.0,89,0.00,,,0.00,,2013-05-15 11:47:00,
2013-05-15 08:00:00,36.0,33.0,30.03,NW,305,0.0,0.0,89,0.00,,,0.00,,2013-05-15 12:00:00,
2013-05-15 08:09:00,41.0,37.0,30.00,NW,305,0.0,0.0,86,0.00,,,0.00,,2013-05-15 12:09:00,
2013-05-15 08:15:00,44.0,38.0,30.00,NW,305,0.0,0.0,79,0.00,,,0.00,,2013-05-15 12:15:00,
2013-05-15 08:29:00,44.0,38.0,30.00,NW,305,0.0,0.0,79,0.00,,,0.00,,2013-05-15 12:29:00,
2013-05-15 08:36:00,47.0,38.0,30.00,SSE,160,0.0,2.0,72,0.00,,,0.00,,2013-05-15 12:36:00,
2013-05-15 08:57:00,50.0,39.0,30.00,SE,140,1.0,5.0,66,0.00,,,0.00,,2013-05-15 12:57:00,
2013-05-15 09:09:00,53.0,38.0,30.00,SSW,195,5.0,7.0,57,0.00,,,0.00,,2013-05-15 13:09:00,
2013-05-15 09:26:00,53.0,35.0,30.00,SW,235,6.0,8.0,51,0.00,,,0.00,,2013-05-15 13:26:00,
2013-05-15 09:36:00,54.0,36.0,29.97,SSE,155,2.0,3.0,51,0.00,,,0.00,,2013-05-15 13:36:00,
2013-05-15 09:59:00,55.0,35.0,29.97,SW,220,6.0,10.0,46,0.00,,,0.00,,2013-05-15 13:59:00,
2013-05-15 10:06:00,56.0,36.0,29.97,SSW,195,7.0,8.0,46,0.00,,,0.00,,2013-05-15 14:06:00,
2013-05-15 10:14:00,57.0,36.0,29.97,SSE,165,6.0,8.0,45,0.00,,,0.00,,2013-05-15 14:14:00,
2013-05-15 10:37:00,59.0,33.0,29.97,South,180,6.0,7.0,38,0.00,,,0.00,,2013-05-15 14:37:00,
2013-05-15 10:47:00,59.0,33.0,29.97,South,180,6.0,7.0,38,0.00,,,0.00,,2013-05-15 14:47:00,
2013-05-15 10:59:00,59.0,34.0,29.97,SSW,205,8.0,13.0,39,0.00,,,0.00,,2013-05-15 14:59:00,
2013-05-15 11:08:00,60.0,36.0,29.97,South,170,7.0,9.0,40,0.00,,,0.00,,2013-05-15 15:08:00,
2013-05-15 11:16:00,61.0,36.0,29.94,South,175,7.0,12.0,39,0.00,,,0.00,,2013-05-15 15:16:00,
2013-05-15 11:37:00,61.0,37.0,29.94,South,190,9.0,10.0,41,0.00,,,0.00,,2013-05-15 15:37:00,
2013-05-15 11:47:00,61.0,37.0,29.94,South,190,9.0,10.0,41,0.00,,,0.00,,2013-05-15 15:47:00,
2013-05-15 12:02:00,64.0,38.0,29.94,SSW,205,9.0,14.0,38,0.00,,,0.00,,2013-05-15 16:02:00,
2013-05-15 12:10:00,64.0,38.0,29.94,South,180,9.0,9.0,38,0.00,,,0.00,,2013-05-15 16:10:00,
2013-05-15 12:22:00,64.0,37.0,29.94,South,190,12.0,15.0,36,0.00,,,0.00,,2013-05-15 16:22:00,
2013-05-15 12:28:00,64.0,37.0,29.94,South,190,12.0,15.0,36,0.00,,,0.00,,2013-05-15 16:28:00,
2013-05-15 12:36:00,64.0,35.0,29.91,SSW,195,13.0,17.0,34,0.00,,,0.00,,2013-05-15 16:36:00,
2013-05-15 12:47:00,64.0,35.0,29.91,SSW,195,13.0,17.0,34,0.00,,,0.00,,2013-05-15 16:47:00,
2013-05-15 13:10:00,60.0,36.0,29.91,South,190,9.0,12.0,40,0.00,,,0.00,,2013-05-15 17:10:00,
2013-05-15 13:19:00,60.0,36.0,29.91,South,190,9.0,12.0,40,0.00,,,0.00,,2013-05-15 17:19:00,
2013-05-15 13:27:00,61.0,36.0,29.91,SSW,205,7.0,12.0,40,0.00,,,0.00,,2013-05-15 17:27:00,
2013-05-15 13:37:00,62.0,38.0,29.88,SSW,205,9.0,15.0,41,0.00,,,0.00,,2013-05-15 17:37:00,
2013-05-15 13:46:00,62.0,38.0,29.88,SSW,205,9.0,15.0,41,0.00,,,0.00,,2013-05-15 17:46:00,
2013-05-15 13:59:00,61.0,38.0,29.88,SSE,165,10.0,16.0,42,0.00,,,0.00,,2013-05-15 17:59:00,
2013-05-15 14:16:00,59.0,38.0,29.85,South,180,9.0,13.0,45,0.00,,,0.00,,2013-05-15 18:16:00,
2013-05-15 14:27:00,59.0,38.0,29.85,South,180,9.0,13.0,45,0.00,,,0.00,,2013-05-15 18:27:00,
2013-05-15 14:37:00,57.0,40.0,29.85,SW,215,8.0,13.0,53,0.00,,,0.00,,2013-05-15 18:37:00,
2013-05-15 14:57:00,54.0,42.0,29.85,SSE,165,5.0,7.0,63,0.01,,,0.01,,2013-05-15 18:57:00,
2013-05-15 15:09:00,52.0,43.0,29.82,SSW,195,6.0,12.0,70,0.03,,,0.03,,2013-05-15 19:09:00,
2013-05-15 15:30:00,50.0,42.0,29.85,SSW,195,7.0,12.0,75,0.06,,,0.06,,2013-05-15 19:30:00,
2013-05-15 15:38:00,49.0,43.0,29.82,South,180,6.0,7.0,79,0.10,,,0.11,,2013-05-15 19:38:00,
2013-05-15 15:57:00,51.0,46.0,29.79,SSE,155,7.0,9.0,83,0.13,,,0.14,,2013-05-15 19:57:00,
2013-05-15 16:08:00,53.0,47.0,29.79,SSE,160,5.0,7.0,80,0.11,,,0.14,,2013-05-15 20:08:00,
2013-05-15 16:18:00,53.0,47.0,29.79,SSE,160,5.0,7.0,80,0.11,,,0.14,,2013-05-15 20:18:00,
2013-05-15 16:29:00,52.0,46.0,29.79,SSE,150,5.0,7.0,80,0.09,,,0.14,,2013-05-15 20:29:00,
2013-05-15 16:38:00,52.0,46.0,29.79,SE,140,2.0,7.0,80,0.03,,,0.14,,2013-05-15 20:38:00,
2013-05-15 16:46:00,52.0,46.0,29.79,SE,140,2.0,7.0,80,0.03,,,0.14,,2013-05-15 20:46:00,
2013-05-15 16:58:00,52.0,46.0,29.76,ESE,105,1.0,1.0,81,0.00,,,0.14,,2013-05-15 20:58:00,
2013-05-15 17:08:00,51.0,46.0,29.76,South,170,2.0,5.0,82,0.00,,,0.14,,2013-05-15 21:08:00,
2013-05-15 17:19:00,51.0,46.0,29.76,South,170,2.0,5.0,82,0.00,,,0.14,,2013-05-15 21:19:00,
2013-05-15 17:28:00,51.0,46.0,29.73,South,170,1.0,6.0,84,0.00,,,0.14,,2013-05-15 21:28:00,
2013-05-15 17:40:00,51.0,46.0,29.73,SSE,155,2.0,3.0,84,0.00,,,0.14,,2013-05-15 21:40:00,
2013-05-15 18:00:00,51.0,47.0,29.73,SE,145,5.0,8.0,86,0.00,,,0.14,,2013-05-15 22:00:00,
2013-05-15 18:10:00,51.0,47.0,29.70,South,170,6.0,10.0,86,0.00,,,0.14,,2013-05-15 22:10:00,
2013-05-15 18:18:00,51.0,47.0,29.70,South,170,6.0,10.0,86,0.00,,,0.14,,2013-05-15 22:18:00,
2013-05-15 18:29:00,51.0,47.0,29.70,SW,215,5.0,9.0,87,0.00,,,0.14,,2013-05-15 22:29:00,
2013-05-15 18:49:00,51.0,48.0,29.73,South,180,2.0,6.0,88,0.00,,,0.14,,2013-05-15 22:49:00,
2013-05-15 18:59:00,51.0,48.0,29.73,South,185,2.0,7.0,88,0.00,,,0.14,,2013-05-15 22:59:00,
2013-05-15 19:07:00,51.0,48.0,29.70,SSW,195,7.0,9.0,89,0.00,,,0.14,,2013-05-15 23:07:00,
2013-05-15 19:15:00,51.0,48.0,29.70,SSW,195,7.0,9.0,89,0.00,,,0.14,,2013-05-15 23:15:00,
2013-05-15 19:28:00,52.0,49.0,29.70,SSE,160,7.0,8.0,89,0.00,,,0.14,,2013-05-15 23:28:00,
2013-05-15 19:38:00,51.0,48.0,29.70,SE,145,6.0,12.0,89,0.00,,,0.14,,2013-05-15 23:38:00,
2013-05-15 19:49:00,51.0,48.0,29.70,SE,145,6.0,12.0,89,0.00,,,0.14,,2013-05-15 23:49:00,
2013-05-15 20:01:00,52.0,49.0,29.70,South,190,5.0,6.0,89,0.00,,,0.14,,2013-05-16 00:01:00,
2013-05-15 20:17:00,52.0,49.0,29.70,SSW,205,2.0,6.0,89,0.00,,,0.14,,2013-05-16 00:17:00,
2013-05-15 20:27:00,51.0,48.0,29.70,South,190,2.0,6.0,89,0.00,,,0.14,,2013-05-16 00:27:00,
2013-05-15 20:35:00,51.0,48.0,29.70,South,190,3.0,7.0,90,0.00,,,0.14,,2013-05-16 00:35:00,
2013-05-15 20:49:00,51.0,48.0,29.67,South,175,3.0,7.0,89,0.00,,,0.14,,2013-05-16 00:49:00,
2013-05-15 20:58:00,51.0,48.0,29.67,South,175,3.0,7.0,89,0.00,,,0.14,,2013-05-16 00:58:00,
2013-05-15 21:07:00,51.0,48.0,29.67,SW,220,2.0,2.0,89,0.00,,,0.14,,2013-05-16 01:07:00,
2013-05-15 21:17:00,50.0,47.0,29.67,SW,215,2.0,6.0,90,0.00,,,0.14,,2013-05-16 01:17:00,
2013-05-15 21:36:00,50.0,47.0,29.70,South,170,2.0,6.0,91,0.00,,,0.14,,2013-05-16 01:36:00,
2013-05-15 21:48:00,50.0,47.0,29.70,South,170,2.0,6.0,91,0.00,,,0.14,,2013-05-16 01:48:00,
2013-05-15 22:01:00,50.0,47.0,29.70,SE,135,2.0,5.0,91,0.00,,,0.14,,2013-05-16 02:01:00,
2013-05-15 22:07:00,49.0,46.0,29.70,SW,230,2.0,5.0,91,0.00,,,0.14,,2013-05-16 02:07:00,
2013-05-15 22:17:00,49.0,46.0,29.70,SW,230,2.0,5.0,91,0.00,,,0.14,,2013-05-16 02:17:00,
2013-05-15 22:28:00,49.0,47.0,29.70,SSW,205,1.0,2.0,92,0.00,,,0.14,,2013-05-16 02:28:00,
2013-05-15 22:38:00,50.0,48.0,29.70,SSW,200,1.0,3.0,92,0.00,,,0.14,,2013-05-16 02:38:00,
2013-05-15 22:46:00,50.0,48.0,29.70,SSW,200,1.0,3.0,92,0.00,,,0.14,,2013-05-16 02:46:00,
2013-05-15 22:55:00,50.0,48.0,29.70,SSW,200,1.0,3.0,92,0.00,,,0.14,,2013-05-16 02:55:00,
2013-05-15 23:07:00,49.0,47.0,29.70,SW,230,1.0,2.0,92,0.00,,,0.14,,2013-05-16 03:07:00,
2013-05-15 23:16:00,49.0,47.0,29.70,SW,230,1.0,2.0,92,0.00,,,0.14,,2013-05-16 03:16:00,
2013-05-15 23:37:00,48.0,46.0,29.70,SSW,200,1.0,2.0,92,0.00,,,0.14,,2013-05-16 03:37:00,
2013-05-15 23:45:00,48.0,46.0,29.70,SSW,200,1.0,2.0,92,0.00,,,0.14,,2013-05-16 03:45:00,